sensor_id;sensor_type;location;lat;lon;timestamp;temperature;humidity
1614;DHT22;800;48.824;9.346;2023-03-14T00:00:22;14.40;75.10
1614;DHT22;800;48.824;9.346;2023-03-14T00:02:52;14.50;74.60
1614;DHT22;800;48.824;9.346;2023-03-14T00:05:18;14.50;74.80
1614;DHT22;800;48.824;9.346;2023-03-14T00:07:44;14.60;74.90
1614;DHT22;800;48.824;9.346;2023-03-14T00:10:12;14.50;74.80
1614;DHT22;800;48.824;9.346;2023-03-14T00:12:39;14.30;75.70
1614;DHT22;800;48.824;9.346;2023-03-14T00:15:06;14.40;75.50
1614;DHT22;800;48.824;9.346;2023-03-14T00:17:32;14.40;76.20
1614;DHT22;800;48.824;9.346;2023-03-14T00:19:58;14.50;75.90
1614;DHT22;800;48.824;9.346;2023-03-14T00:22:34;14.60;75.50
1614;DHT22;800;48.824;9.346;2023-03-14T00:25:00;14.60;74.50
1614;DHT22;800;48.824;9.346;2023-03-14T00:27:26;14.40;75.30
1614;DHT22;800;48.824;9.346;2023-03-14T00:29:52;14.60;75.30
1614;DHT22;800;48.824;9.346;2023-03-14T00:32:17;14.60;74.80
1614;DHT22;800;48.824;9.346;2023-03-14T00:34:43;14.60;74.30
1614;DHT22;800;48.824;9.346;2023-03-14T00:37:08;14.60;73.70
1614;DHT22;800;48.824;9.346;2023-03-14T00:39:34;14.60;73.50
1614;DHT22;800;48.824;9.346;2023-03-14T00:42:00;14.60;73.70
1614;DHT22;800;48.824;9.346;2023-03-14T00:44:25;14.50;73.90
1614;DHT22;800;48.824;9.346;2023-03-14T00:46:51;14.70;73.20
1614;DHT22;800;48.824;9.346;2023-03-14T00:49:16;14.70;72.10
1614;DHT22;800;48.824;9.346;2023-03-14T00:51:42;14.80;72.20
1614;DHT22;800;48.824;9.346;2023-03-14T00:54:07;14.90;71.80
1614;DHT22;800;48.824;9.346;2023-03-14T00:56:33;15.00;71.40
1614;DHT22;800;48.824;9.346;2023-03-14T00:58:59;15.00;70.70
1614;DHT22;800;48.824;9.346;2023-03-14T01:01:24;15.10;70.50
1614;DHT22;800;48.824;9.346;2023-03-14T01:03:54;15.10;69.90
1614;DHT22;800;48.824;9.346;2023-03-14T01:06:23;15.20;69.60
1614;DHT22;800;48.824;9.346;2023-03-14T01:08:49;15.30;68.90
1614;DHT22;800;48.824;9.346;2023-03-14T01:11:25;15.40;68.60
1614;DHT22;800;48.824;9.346;2023-03-14T01:13:51;15.40;68.00
1614;DHT22;800;48.824;9.346;2023-03-14T01:16:19;15.40;68.50
1614;DHT22;800;48.824;9.346;2023-03-14T01:18:45;15.50;68.20
1614;DHT22;800;48.824;9.346;2023-03-14T01:21:28;15.20;67.70
1614;DHT22;800;48.824;9.346;2023-03-14T01:23:55;15.10;69.00
1614;DHT22;800;48.824;9.346;2023-03-14T01:26:24;15.10;69.00
1614;DHT22;800;48.824;9.346;2023-03-14T01:28:52;15.10;68.70
1614;DHT22;800;48.824;9.346;2023-03-14T01:31:18;15.00;69.00
1614;DHT22;800;48.824;9.346;2023-03-14T01:33:44;14.90;68.50
1614;DHT22;800;48.824;9.346;2023-03-14T01:36:10;14.70;68.90
1614;DHT22;800;48.824;9.346;2023-03-14T01:38:37;14.70;69.60
1614;DHT22;800;48.824;9.346;2023-03-14T01:41:04;14.80;68.90
1614;DHT22;800;48.824;9.346;2023-03-14T01:43:30;14.80;68.50
1614;DHT22;800;48.824;9.346;2023-03-14T01:48:57;15.00;67.90
1614;DHT22;800;48.824;9.346;2023-03-14T01:54:10;15.20;66.60
1614;DHT22;800;48.824;9.346;2023-03-14T01:56:38;15.20;66.20
1614;DHT22;800;48.824;9.346;2023-03-14T01:59:07;15.30;66.20
1614;DHT22;800;48.824;9.346;2023-03-14T02:01:34;15.10;66.20
1614;DHT22;800;48.824;9.346;2023-03-14T02:04:02;15.10;66.50
1614;DHT22;800;48.824;9.346;2023-03-14T02:06:36;15.10;66.50
1614;DHT22;800;48.824;9.346;2023-03-14T02:09:04;14.70;67.10
1614;DHT22;800;48.824;9.346;2023-03-14T02:11:30;14.50;68.20
1614;DHT22;800;48.824;9.346;2023-03-14T02:13:57;14.50;68.40
1614;DHT22;800;48.824;9.346;2023-03-14T02:16:23;14.40;68.60
1614;DHT22;800;48.824;9.346;2023-03-14T02:18:49;14.30;68.10
1614;DHT22;800;48.824;9.346;2023-03-14T02:21:18;14.30;68.90
1614;DHT22;800;48.824;9.346;2023-03-14T02:23:51;14.40;68.90
1614;DHT22;800;48.824;9.346;2023-03-14T02:26:31;14.30;68.80
1614;DHT22;800;48.824;9.346;2023-03-14T02:28:58;14.30;68.80
1614;DHT22;800;48.824;9.346;2023-03-14T02:31:23;14.30;69.00
1614;DHT22;800;48.824;9.346;2023-03-14T02:33:50;14.40;67.70
1614;DHT22;800;48.824;9.346;2023-03-14T02:36:18;14.50;67.40
1614;DHT22;800;48.824;9.346;2023-03-14T02:38:55;14.50;67.20
1614;DHT22;800;48.824;9.346;2023-03-14T02:41:21;14.30;66.90
1614;DHT22;800;48.824;9.346;2023-03-14T02:43:47;14.20;68.10
1614;DHT22;800;48.824;9.346;2023-03-14T02:46:16;14.30;68.40
1614;DHT22;800;48.824;9.346;2023-03-14T02:51:11;14.10;68.10
1614;DHT22;800;48.824;9.346;2023-03-14T02:53:38;14.10;67.90
1614;DHT22;800;48.824;9.346;2023-03-14T02:56:04;13.90;68.30
1614;DHT22;800;48.824;9.346;2023-03-14T02:58:30;13.90;68.60
1614;DHT22;800;48.824;9.346;2023-03-14T03:00:56;13.90;68.30
1614;DHT22;800;48.824;9.346;2023-03-14T03:03:21;13.90;68.90
1614;DHT22;800;48.824;9.346;2023-03-14T03:05:49;14.10;68.60
1614;DHT22;800;48.824;9.346;2023-03-14T03:08:16;14.20;68.70
1614;DHT22;800;48.824;9.346;2023-03-14T03:10:41;14.30;67.90
1614;DHT22;800;48.824;9.346;2023-03-14T03:13:07;14.10;67.70
1614;DHT22;800;48.824;9.346;2023-03-14T03:15:32;14.00;67.90
1614;DHT22;800;48.824;9.346;2023-03-14T03:17:58;14.10;68.10
1614;DHT22;800;48.824;9.346;2023-03-14T03:20:24;14.10;67.60
1614;DHT22;800;48.824;9.346;2023-03-14T03:22:49;14.20;67.30
1614;DHT22;800;48.824;9.346;2023-03-14T03:25:15;14.30;67.40
1614;DHT22;800;48.824;9.346;2023-03-14T03:27:41;14.20;67.30
1614;DHT22;800;48.824;9.346;2023-03-14T03:30:07;14.10;67.60
1614;DHT22;800;48.824;9.346;2023-03-14T03:32:34;14.00;67.70
1614;DHT22;800;48.824;9.346;2023-03-14T03:34:59;14.00;67.70
1614;DHT22;800;48.824;9.346;2023-03-14T03:37:25;13.80;68.10
1614;DHT22;800;48.824;9.346;2023-03-14T03:39:51;13.70;68.80
1614;DHT22;800;48.824;9.346;2023-03-14T03:42:17;13.60;69.30
1614;DHT22;800;48.824;9.346;2023-03-14T03:44:43;13.80;69.30
1614;DHT22;800;48.824;9.346;2023-03-14T03:47:08;13.60;68.20
1614;DHT22;800;48.824;9.346;2023-03-14T03:49:34;13.60;68.50
1614;DHT22;800;48.824;9.346;2023-03-14T03:52:00;13.60;67.30
1614;DHT22;800;48.824;9.346;2023-03-14T03:54:25;13.50;68.10
1614;DHT22;800;48.824;9.346;2023-03-14T03:56:51;13.40;68.20
1614;DHT22;800;48.824;9.346;2023-03-14T03:59:18;13.40;67.60
1614;DHT22;800;48.824;9.346;2023-03-14T04:01:43;13.50;67.40
1614;DHT22;800;48.824;9.346;2023-03-14T04:04:09;13.40;67.30
1614;DHT22;800;48.824;9.346;2023-03-14T04:06:35;13.50;66.60
1614;DHT22;800;48.824;9.346;2023-03-14T04:09:02;13.60;66.40
1614;DHT22;800;48.824;9.346;2023-03-14T04:11:28;13.60;66.00
1614;DHT22;800;48.824;9.346;2023-03-14T04:13:53;13.70;65.10
1614;DHT22;800;48.824;9.346;2023-03-14T04:16:22;13.60;65.20
1614;DHT22;800;48.824;9.346;2023-03-14T04:18:48;13.70;65.10
1614;DHT22;800;48.824;9.346;2023-03-14T04:21:14;13.60;64.50
1614;DHT22;800;48.824;9.346;2023-03-14T04:23:40;13.60;64.50
1614;DHT22;800;48.824;9.346;2023-03-14T04:26:06;13.70;63.80
1614;DHT22;800;48.824;9.346;2023-03-14T04:28:31;13.70;63.30
1614;DHT22;800;48.824;9.346;2023-03-14T04:30:57;13.70;62.80
1614;DHT22;800;48.824;9.346;2023-03-14T04:33:23;13.70;62.90
1614;DHT22;800;48.824;9.346;2023-03-14T04:35:48;13.50;62.60
1614;DHT22;800;48.824;9.346;2023-03-14T04:38:15;13.80;62.70
1614;DHT22;800;48.824;9.346;2023-03-14T04:40:41;13.90;62.00
1614;DHT22;800;48.824;9.346;2023-03-14T04:43:08;13.80;61.40
1614;DHT22;800;48.824;9.346;2023-03-14T04:45:35;14.00;61.40
1614;DHT22;800;48.824;9.346;2023-03-14T04:48:01;13.90;60.80
1614;DHT22;800;48.824;9.346;2023-03-14T04:50:27;13.80;61.30
1614;DHT22;800;48.824;9.346;2023-03-14T04:52:52;13.80;61.30
1614;DHT22;800;48.824;9.346;2023-03-14T04:55:18;13.70;60.60
1614;DHT22;800;48.824;9.346;2023-03-14T04:57:43;13.60;61.20
1614;DHT22;800;48.824;9.346;2023-03-14T05:00:09;13.80;61.10
1614;DHT22;800;48.824;9.346;2023-03-14T05:02:35;14.00;60.80
1614;DHT22;800;48.824;9.346;2023-03-14T05:05:01;14.10;60.30
1614;DHT22;800;48.824;9.346;2023-03-14T05:07:26;14.10;59.80
1614;DHT22;800;48.824;9.346;2023-03-14T05:09:52;13.90;59.90
1614;DHT22;800;48.824;9.346;2023-03-14T05:12:19;13.80;59.90
1614;DHT22;800;48.824;9.346;2023-03-14T05:14:44;13.80;61.00
1614;DHT22;800;48.824;9.346;2023-03-14T05:17:10;14.00;60.70
1614;DHT22;800;48.824;9.346;2023-03-14T05:19:36;14.10;60.30
1614;DHT22;800;48.824;9.346;2023-03-14T05:22:02;14.00;59.80
1614;DHT22;800;48.824;9.346;2023-03-14T05:24:28;13.80;60.80
1614;DHT22;800;48.824;9.346;2023-03-14T05:26:54;13.70;60.20
1614;DHT22;800;48.824;9.346;2023-03-14T05:29:19;13.80;60.70
1614;DHT22;800;48.824;9.346;2023-03-14T05:31:45;13.90;60.50
1614;DHT22;800;48.824;9.346;2023-03-14T05:34:11;13.80;59.90
1614;DHT22;800;48.824;9.346;2023-03-14T05:36:36;13.90;60.00
1614;DHT22;800;48.824;9.346;2023-03-14T05:39:02;13.80;59.20
1614;DHT22;800;48.824;9.346;2023-03-14T05:41:28;13.70;59.30
1614;DHT22;800;48.824;9.346;2023-03-14T05:43:54;13.70;59.70
1614;DHT22;800;48.824;9.346;2023-03-14T05:46:20;13.80;59.50
1614;DHT22;800;48.824;9.346;2023-03-14T05:48:45;13.50;59.80
1614;DHT22;800;48.824;9.346;2023-03-14T05:51:11;13.40;60.20
1614;DHT22;800;48.824;9.346;2023-03-14T05:53:37;13.60;60.10
1614;DHT22;800;48.824;9.346;2023-03-14T05:56:02;13.80;59.50
1614;DHT22;800;48.824;9.346;2023-03-14T05:58:28;13.80;59.20
1614;DHT22;800;48.824;9.346;2023-03-14T06:00:53;13.70;59.00
1614;DHT22;800;48.824;9.346;2023-03-14T06:03:19;13.60;58.80
1614;DHT22;800;48.824;9.346;2023-03-14T06:05:45;13.60;59.10
1614;DHT22;800;48.824;9.346;2023-03-14T06:08:10;13.80;59.00
1614;DHT22;800;48.824;9.346;2023-03-14T06:10:36;13.60;58.50
1614;DHT22;800;48.824;9.346;2023-03-14T06:13:03;13.80;58.60
1614;DHT22;800;48.824;9.346;2023-03-14T06:15:28;13.80;58.70
1614;DHT22;800;48.824;9.346;2023-03-14T06:17:55;14.00;58.50
1614;DHT22;800;48.824;9.346;2023-03-14T06:20:21;13.90;58.00
1614;DHT22;800;48.824;9.346;2023-03-14T06:22:46;13.90;58.80
1614;DHT22;800;48.824;9.346;2023-03-14T06:25:12;13.90;58.50
1614;DHT22;800;48.824;9.346;2023-03-14T06:27:38;13.70;58.40
1614;DHT22;800;48.824;9.346;2023-03-14T06:30:04;13.80;58.70
1614;DHT22;800;48.824;9.346;2023-03-14T06:32:29;14.00;58.30
1614;DHT22;800;48.824;9.346;2023-03-14T06:34:55;14.10;58.00
1614;DHT22;800;48.824;9.346;2023-03-14T06:37:22;14.10;57.80
1614;DHT22;800;48.824;9.346;2023-03-14T06:39:48;14.10;57.90
1614;DHT22;800;48.824;9.346;2023-03-14T06:42:13;14.20;57.60
1614;DHT22;800;48.824;9.346;2023-03-14T06:44:39;14.30;57.60
1614;DHT22;800;48.824;9.346;2023-03-14T06:47:04;14.40;57.30
1614;DHT22;800;48.824;9.346;2023-03-14T06:49:30;14.00;57.40
1614;DHT22;800;48.824;9.346;2023-03-14T06:51:55;14.20;57.50
1614;DHT22;800;48.824;9.346;2023-03-14T06:54:21;14.40;57.40
1614;DHT22;800;48.824;9.346;2023-03-14T06:56:47;14.50;56.80
1614;DHT22;800;48.824;9.346;2023-03-14T06:59:12;14.60;56.50
1614;DHT22;800;48.824;9.346;2023-03-14T07:01:38;14.80;56.00
1614;DHT22;800;48.824;9.346;2023-03-14T07:04:03;15.10;55.70
1614;DHT22;800;48.824;9.346;2023-03-14T07:06:29;15.30;55.40
1614;DHT22;800;48.824;9.346;2023-03-14T07:08:55;15.40;54.60
1614;DHT22;800;48.824;9.346;2023-03-14T07:11:23;15.50;54.40
1614;DHT22;800;48.824;9.346;2023-03-14T07:13:49;15.70;54.50
1614;DHT22;800;48.824;9.346;2023-03-14T07:16:14;15.80;53.70
1614;DHT22;800;48.824;9.346;2023-03-14T07:18:40;15.90;53.50
1614;DHT22;800;48.824;9.346;2023-03-14T07:21:06;15.80;53.50
1614;DHT22;800;48.824;9.346;2023-03-14T07:23:33;16.10;53.70
1614;DHT22;800;48.824;9.346;2023-03-14T07:25:59;16.40;52.90
1614;DHT22;800;48.824;9.346;2023-03-14T07:28:24;16.60;52.30
1614;DHT22;800;48.824;9.346;2023-03-14T07:30:50;16.90;52.50
1614;DHT22;800;48.824;9.346;2023-03-14T07:33:16;17.00;51.50
1614;DHT22;800;48.824;9.346;2023-03-14T07:35:42;17.00;50.80
1614;DHT22;800;48.824;9.346;2023-03-14T07:38:07;16.80;50.50
1614;DHT22;800;48.824;9.346;2023-03-14T07:40:33;16.80;51.10
1614;DHT22;800;48.824;9.346;2023-03-14T07:42:58;16.90;50.70
1614;DHT22;800;48.824;9.346;2023-03-14T07:45:24;17.00;50.80
1614;DHT22;800;48.824;9.346;2023-03-14T07:47:49;17.20;50.60
1614;DHT22;800;48.824;9.346;2023-03-14T07:50:15;17.20;50.30
1614;DHT22;800;48.824;9.346;2023-03-14T07:52:41;17.30;50.30
1614;DHT22;800;48.824;9.346;2023-03-14T07:55:07;17.30;49.40
1614;DHT22;800;48.824;9.346;2023-03-14T07:57:33;17.30;49.90
1614;DHT22;800;48.824;9.346;2023-03-14T07:59:58;17.20;50.10
1614;DHT22;800;48.824;9.346;2023-03-14T08:02:24;17.40;49.70
1614;DHT22;800;48.824;9.346;2023-03-14T08:04:50;17.30;49.70
1614;DHT22;800;48.824;9.346;2023-03-14T08:07:16;17.30;49.80
1614;DHT22;800;48.824;9.346;2023-03-14T08:09:42;17.30;49.90
1614;DHT22;800;48.824;9.346;2023-03-14T08:12:08;17.50;50.00
1614;DHT22;800;48.824;9.346;2023-03-14T08:14:33;17.70;49.20
1614;DHT22;800;48.824;9.346;2023-03-14T08:16:59;17.40;49.10
1614;DHT22;800;48.824;9.346;2023-03-14T08:19:24;17.20;49.70
1614;DHT22;800;48.824;9.346;2023-03-14T08:21:50;17.30;49.70
1614;DHT22;800;48.824;9.346;2023-03-14T08:24:16;17.10;49.80
1614;DHT22;800;48.824;9.346;2023-03-14T08:26:42;17.00;49.30
1614;DHT22;800;48.824;9.346;2023-03-14T08:29:07;16.70;49.50
1614;DHT22;800;48.824;9.346;2023-03-14T08:31:34;16.60;50.70
1614;DHT22;800;48.824;9.346;2023-03-14T08:34:01;16.50;50.80
1614;DHT22;800;48.824;9.346;2023-03-14T08:36:27;16.50;50.10
1614;DHT22;800;48.824;9.346;2023-03-14T08:38:52;16.60;50.50
1614;DHT22;800;48.824;9.346;2023-03-14T08:41:18;16.80;50.70
1614;DHT22;800;48.824;9.346;2023-03-14T08:43:44;17.00;50.20
1614;DHT22;800;48.824;9.346;2023-03-14T08:46:09;17.00;49.60
1614;DHT22;800;48.824;9.346;2023-03-14T08:48:35;17.00;49.80
1614;DHT22;800;48.824;9.346;2023-03-14T08:51:08;16.90;49.50
1614;DHT22;800;48.824;9.346;2023-03-14T08:53:34;17.00;50.30
1614;DHT22;800;48.824;9.346;2023-03-14T08:56:00;17.00;49.30
1614;DHT22;800;48.824;9.346;2023-03-14T08:58:25;17.00;48.40
1614;DHT22;800;48.824;9.346;2023-03-14T09:00:51;16.60;47.90
1614;DHT22;800;48.824;9.346;2023-03-14T09:03:17;16.40;48.70
1614;DHT22;800;48.824;9.346;2023-03-14T09:05:42;16.50;49.30
1614;DHT22;800;48.824;9.346;2023-03-14T09:08:08;16.40;49.10
1614;DHT22;800;48.824;9.346;2023-03-14T09:10:33;16.00;48.70
1614;DHT22;800;48.824;9.346;2023-03-14T09:12:59;16.00;49.60
1614;DHT22;800;48.824;9.346;2023-03-14T09:15:25;15.90;49.30
1614;DHT22;800;48.824;9.346;2023-03-14T09:17:51;16.10;49.70
1614;DHT22;800;48.824;9.346;2023-03-14T09:20:17;15.90;49.50
1614;DHT22;800;48.824;9.346;2023-03-14T09:22:42;15.90;50.20
1614;DHT22;800;48.824;9.346;2023-03-14T09:25:08;15.90;50.60
1614;DHT22;800;48.824;9.346;2023-03-14T09:27:34;15.80;50.90
1614;DHT22;800;48.824;9.346;2023-03-14T09:29:59;15.80;51.90
1614;DHT22;800;48.824;9.346;2023-03-14T09:32:25;15.80;51.30
1614;DHT22;800;48.824;9.346;2023-03-14T09:34:51;15.40;51.80
1614;DHT22;800;48.824;9.346;2023-03-14T09:37:16;15.20;52.50
1614;DHT22;800;48.824;9.346;2023-03-14T09:39:42;15.10;53.40
1614;DHT22;800;48.824;9.346;2023-03-14T09:42:20;15.40;53.80
1614;DHT22;800;48.824;9.346;2023-03-14T09:47:16;15.50;53.10
1614;DHT22;800;48.824;9.346;2023-03-14T09:49:45;15.60;53.40
1614;DHT22;800;48.824;9.346;2023-03-14T09:52:18;15.60;53.00
1614;DHT22;800;48.824;9.346;2023-03-14T09:54:48;15.80;53.00
1614;DHT22;800;48.824;9.346;2023-03-14T09:57:17;15.90;52.70
1614;DHT22;800;48.824;9.346;2023-03-14T09:59:45;15.70;51.70
1614;DHT22;800;48.824;9.346;2023-03-14T10:02:28;15.80;52.40
1614;DHT22;800;48.824;9.346;2023-03-14T10:04:57;15.90;52.10
1614;DHT22;800;48.824;9.346;2023-03-14T10:07:30;16.10;52.30
1614;DHT22;800;48.824;9.346;2023-03-14T10:09:57;16.20;51.70
1614;DHT22;800;48.824;9.346;2023-03-14T10:12:35;16.10;51.30
1614;DHT22;800;48.824;9.346;2023-03-14T10:15:10;15.90;51.40
1614;DHT22;800;48.824;9.346;2023-03-14T10:17:44;15.70;51.00
1614;DHT22;800;48.824;9.346;2023-03-14T10:20:32;15.60;51.30
1614;DHT22;800;48.824;9.346;2023-03-14T10:23:19;15.90;51.50
1614;DHT22;800;48.824;9.346;2023-03-14T10:26:08;16.00;50.90
1614;DHT22;800;48.824;9.346;2023-03-14T10:31:05;16.50;50.30
1614;DHT22;800;48.824;9.346;2023-03-14T10:33:33;16.70;50.20
1614;DHT22;800;48.824;9.346;2023-03-14T10:36:00;16.80;49.80
1614;DHT22;800;48.824;9.346;2023-03-14T10:38:36;16.70;49.70
1614;DHT22;800;48.824;9.346;2023-03-14T10:41:04;16.90;49.30
1614;DHT22;800;48.824;9.346;2023-03-14T10:43:40;16.70;48.80
1614;DHT22;800;48.824;9.346;2023-03-14T10:46:12;16.70;49.80
1614;DHT22;800;48.824;9.346;2023-03-14T10:48:39;16.50;49.70
1614;DHT22;800;48.824;9.346;2023-03-14T10:53:49;16.90;50.60
1614;DHT22;800;48.824;9.346;2023-03-14T10:56:22;16.90;49.40
1614;DHT22;800;48.824;9.346;2023-03-14T10:58:54;16.60;48.90
1614;DHT22;800;48.824;9.346;2023-03-14T11:17:46;16.20;51.50
1614;DHT22;800;48.824;9.346;2023-03-14T11:23:02;15.80;51.00
1614;DHT22;800;48.824;9.346;2023-03-14T11:25:32;15.80;51.80
1614;DHT22;800;48.824;9.346;2023-03-14T11:28:13;15.90;52.40
1614;DHT22;800;48.824;9.346;2023-03-14T11:30:51;15.90;52.10
1614;DHT22;800;48.824;9.346;2023-03-14T11:33:37;15.90;53.00
1614;DHT22;800;48.824;9.346;2023-03-14T11:36:17;15.90;53.90
1614;DHT22;800;48.824;9.346;2023-03-14T11:38:50;15.60;55.60
1614;DHT22;800;48.824;9.346;2023-03-14T11:41:38;15.30;56.80
1614;DHT22;800;48.824;9.346;2023-03-14T11:44:12;15.00;56.70
1614;DHT22;800;48.824;9.346;2023-03-14T11:46:49;14.80;57.20
1614;DHT22;800;48.824;9.346;2023-03-14T11:51:49;14.60;58.30
1614;DHT22;800;48.824;9.346;2023-03-14T11:54:28;14.60;58.40
1614;DHT22;800;48.824;9.346;2023-03-14T11:57:05;14.50;57.90
1614;DHT22;800;48.824;9.346;2023-03-14T12:13:28;14.70;58.80
1614;DHT22;800;48.824;9.346;2023-03-14T12:15:59;14.80;58.70
1614;DHT22;800;48.824;9.346;2023-03-14T12:18:31;14.80;58.50
1614;DHT22;800;48.824;9.346;2023-03-14T12:21:02;14.80;58.10
1614;DHT22;800;48.824;9.346;2023-03-14T12:23:42;14.90;58.20
1614;DHT22;800;48.824;9.346;2023-03-14T12:28:37;14.70;58.40
1614;DHT22;800;48.824;9.346;2023-03-14T12:50:46;14.20;56.40
1614;DHT22;800;48.824;9.346;2023-03-14T13:01:20;13.70;52.70
1614;DHT22;800;48.824;9.346;2023-03-14T13:03:55;13.60;51.90
1614;DHT22;800;48.824;9.346;2023-03-14T13:11:58;13.70;48.40
1614;DHT22;800;48.824;9.346;2023-03-14T13:14:28;14.10;48.30
1614;DHT22;800;48.824;9.346;2023-03-14T13:16:54;14.50;47.60
1614;DHT22;800;48.824;9.346;2023-03-14T13:19:25;14.70;47.00
1614;DHT22;800;48.824;9.346;2023-03-14T13:22:00;14.40;43.30
1614;DHT22;800;48.824;9.346;2023-03-14T13:24:27;13.70;43.10
1614;DHT22;800;48.824;9.346;2023-03-14T13:26:56;13.70;45.30
1614;DHT22;800;48.824;9.346;2023-03-14T13:29:28;13.80;45.30
1614;DHT22;800;48.824;9.346;2023-03-14T13:31:56;13.40;44.60
1614;DHT22;800;48.824;9.346;2023-03-14T13:34:26;13.60;44.60
1614;DHT22;800;48.824;9.346;2023-03-14T13:36:54;13.80;45.00
1614;DHT22;800;48.824;9.346;2023-03-14T13:39:22;14.00;44.20
1614;DHT22;800;48.824;9.346;2023-03-14T13:41:51;13.80;42.60
1614;DHT22;800;48.824;9.346;2023-03-14T13:44:25;13.90;42.70
1614;DHT22;800;48.824;9.346;2023-03-14T13:46:51;13.90;42.00
1614;DHT22;800;48.824;9.346;2023-03-14T13:49:22;13.50;41.90
1614;DHT22;800;48.824;9.346;2023-03-14T13:51:49;13.60;42.00
1614;DHT22;800;48.824;9.346;2023-03-14T13:54:17;13.70;42.30
1614;DHT22;800;48.824;9.346;2023-03-14T13:56:43;13.60;42.20
1614;DHT22;800;48.824;9.346;2023-03-14T13:59:28;13.60;41.60
1614;DHT22;800;48.824;9.346;2023-03-14T14:01:55;13.60;41.80
1614;DHT22;800;48.824;9.346;2023-03-14T14:04:23;13.70;42.10
1614;DHT22;800;48.824;9.346;2023-03-14T14:06:58;13.70;42.00
1614;DHT22;800;48.824;9.346;2023-03-14T14:09:29;13.90;42.30
1614;DHT22;800;48.824;9.346;2023-03-14T14:11:58;13.50;40.00
1614;DHT22;800;48.824;9.346;2023-03-14T14:14:29;13.20;39.30
1614;DHT22;800;48.824;9.346;2023-03-14T14:16:57;13.10;39.60
1614;DHT22;800;48.824;9.346;2023-03-14T14:19:25;13.00;39.30
1614;DHT22;800;48.824;9.346;2023-03-14T14:21:52;13.00;39.50
1614;DHT22;800;48.824;9.346;2023-03-14T14:24:19;12.60;38.30
1614;DHT22;800;48.824;9.346;2023-03-14T14:26:54;12.60;38.90
1614;DHT22;800;48.824;9.346;2023-03-14T14:29:30;12.50;38.30
1614;DHT22;800;48.824;9.346;2023-03-14T14:32:18;12.20;38.20
1614;DHT22;800;48.824;9.346;2023-03-14T14:34:47;12.50;38.30
1614;DHT22;800;48.824;9.346;2023-03-14T14:37:21;12.10;38.20
1614;DHT22;800;48.824;9.346;2023-03-14T14:39:49;12.20;39.00
1614;DHT22;800;48.824;9.346;2023-03-14T14:42:17;12.20;39.20
1614;DHT22;800;48.824;9.346;2023-03-14T14:44:44;12.40;39.40
1614;DHT22;800;48.824;9.346;2023-03-14T14:47:14;12.40;39.80
1614;DHT22;800;48.824;9.346;2023-03-14T14:49:41;12.60;39.90
1614;DHT22;800;48.824;9.346;2023-03-14T14:52:20;12.40;39.80
1614;DHT22;800;48.824;9.346;2023-03-14T14:57:19;12.50;39.60
1614;DHT22;800;48.824;9.346;2023-03-14T14:59:45;12.50;39.10
1614;DHT22;800;48.824;9.346;2023-03-14T15:05:22;12.10;39.40
1614;DHT22;800;48.824;9.346;2023-03-14T15:07:48;12.20;40.40
1614;DHT22;800;48.824;9.346;2023-03-14T15:10:20;12.10;40.40
1614;DHT22;800;48.824;9.346;2023-03-14T15:12:46;12.10;40.10
1614;DHT22;800;48.824;9.346;2023-03-14T15:15:13;12.10;40.20
1614;DHT22;800;48.824;9.346;2023-03-14T15:17:39;12.20;40.30
1614;DHT22;800;48.824;9.346;2023-03-14T15:20:09;12.40;40.30
1614;DHT22;800;48.824;9.346;2023-03-14T15:22:35;12.60;40.00
1614;DHT22;800;48.824;9.346;2023-03-14T15:25:00;12.60;39.70
1614;DHT22;800;48.824;9.346;2023-03-14T15:27:28;12.70;40.10
1614;DHT22;800;48.824;9.346;2023-03-14T15:29:55;12.80;39.70
1614;DHT22;800;48.824;9.346;2023-03-14T15:32:21;12.80;39.30
1614;DHT22;800;48.824;9.346;2023-03-14T15:34:46;13.10;39.80
1614;DHT22;800;48.824;9.346;2023-03-14T15:37:13;13.00;39.80
1614;DHT22;800;48.824;9.346;2023-03-14T15:39:41;12.90;39.20
1614;DHT22;800;48.824;9.346;2023-03-14T15:42:07;12.80;38.90
1614;DHT22;800;48.824;9.346;2023-03-14T15:44:33;12.70;39.20
1614;DHT22;800;48.824;9.346;2023-03-14T15:46:59;12.70;39.50
1614;DHT22;800;48.824;9.346;2023-03-14T15:49:24;12.90;39.50
1614;DHT22;800;48.824;9.346;2023-03-14T15:51:50;13.00;39.30
1614;DHT22;800;48.824;9.346;2023-03-14T15:54:15;12.90;39.40
1614;DHT22;800;48.824;9.346;2023-03-14T15:56:41;13.10;40.00
1614;DHT22;800;48.824;9.346;2023-03-14T15:59:07;13.20;39.90
1614;DHT22;800;48.824;9.346;2023-03-14T16:01:32;13.20;39.70
1614;DHT22;800;48.824;9.346;2023-03-14T16:03:58;12.80;39.80
1614;DHT22;800;48.824;9.346;2023-03-14T16:06:24;13.00;40.30
1614;DHT22;800;48.824;9.346;2023-03-14T16:08:50;13.10;40.30
1614;DHT22;800;48.824;9.346;2023-03-14T16:11:16;13.00;40.20
1614;DHT22;800;48.824;9.346;2023-03-14T16:13:43;12.70;40.60
1614;DHT22;800;48.824;9.346;2023-03-14T16:16:09;12.60;40.90
1614;DHT22;800;48.824;9.346;2023-03-14T16:18:38;13.00;41.30
1614;DHT22;800;48.824;9.346;2023-03-14T16:21:11;13.20;40.60
1614;DHT22;800;48.824;9.346;2023-03-14T16:23:37;13.50;40.60
1614;DHT22;800;48.824;9.346;2023-03-14T16:26:05;13.30;40.20
1614;DHT22;800;48.824;9.346;2023-03-14T16:28:31;13.00;40.30
1614;DHT22;800;48.824;9.346;2023-03-14T16:31:05;13.20;41.00
1614;DHT22;800;48.824;9.346;2023-03-14T16:33:31;13.20;40.50
1614;DHT22;800;48.824;9.346;2023-03-14T16:35:59;13.20;40.80
1614;DHT22;800;48.824;9.346;2023-03-14T16:38:26;13.10;40.70
1614;DHT22;800;48.824;9.346;2023-03-14T16:40:56;13.20;41.00
1614;DHT22;800;48.824;9.346;2023-03-14T16:43:22;13.40;40.70
1614;DHT22;800;48.824;9.346;2023-03-14T16:45:49;13.20;40.80
1614;DHT22;800;48.824;9.346;2023-03-14T16:48:15;13.40;41.20
1614;DHT22;800;48.824;9.346;2023-03-14T16:50:41;13.30;41.00
1614;DHT22;800;48.824;9.346;2023-03-14T16:53:07;13.30;41.10
1614;DHT22;800;48.824;9.346;2023-03-14T16:55:32;13.40;41.40
1614;DHT22;800;48.824;9.346;2023-03-14T16:57:58;13.40;41.00
1614;DHT22;800;48.824;9.346;2023-03-14T17:00:23;13.40;41.50
1614;DHT22;800;48.824;9.346;2023-03-14T17:02:49;13.30;41.40
1614;DHT22;800;48.824;9.346;2023-03-14T17:05:15;13.30;41.60
1614;DHT22;800;48.824;9.346;2023-03-14T17:07:41;13.30;41.60
1614;DHT22;800;48.824;9.346;2023-03-14T17:10:07;13.20;41.90
1614;DHT22;800;48.824;9.346;2023-03-14T17:12:33;13.10;42.10
1614;DHT22;800;48.824;9.346;2023-03-14T17:14:59;12.80;42.50
1614;DHT22;800;48.824;9.346;2023-03-14T17:17:25;12.90;43.10
1614;DHT22;800;48.824;9.346;2023-03-14T17:19:50;12.60;45.30
1614;DHT22;800;48.824;9.346;2023-03-14T17:22:19;12.50;46.90
1614;DHT22;800;48.824;9.346;2023-03-14T17:24:45;12.60;47.50
1614;DHT22;800;48.824;9.346;2023-03-14T17:27:11;12.50;48.20
1614;DHT22;800;48.824;9.346;2023-03-14T17:29:38;12.60;48.90
1614;DHT22;800;48.824;9.346;2023-03-14T17:32:05;12.70;49.30
1614;DHT22;800;48.824;9.346;2023-03-14T17:34:31;12.60;49.80
1614;DHT22;800;48.824;9.346;2023-03-14T17:36:57;12.50;50.40
1614;DHT22;800;48.824;9.346;2023-03-14T17:39:22;12.30;50.60
1614;DHT22;800;48.824;9.346;2023-03-14T17:41:48;12.30;51.00
1614;DHT22;800;48.824;9.346;2023-03-14T17:44:13;12.30;51.10
1614;DHT22;800;48.824;9.346;2023-03-14T17:46:39;12.40;51.20
1614;DHT22;800;48.824;9.346;2023-03-14T17:49:04;12.30;51.10
1614;DHT22;800;48.824;9.346;2023-03-14T17:51:30;12.20;52.10